sensor_id;sensor_type;location;lat;lon;timestamp;P1;durP1;ratioP1;P2;durP2;ratioP2
81036;SDS011;70521;47.468;19.306;2023-11-21T00:00:38;30.17;;;27.83;;
81036;SDS011;70521;47.468;19.306;2023-11-21T00:03:39;35.00;;;32.63;;
81036;SDS011;70521;47.468;19.306;2023-11-21T00:06:41;31.75;;;29.42;;
81036;SDS011;70521;47.468;19.306;2023-11-21T00:09:42;31.38;;;29.35;;
81036;SDS011;70521;47.468;19.306;2023-11-21T00:12:43;25.98;;;24.10;;
81036;SDS011;70521;47.468;19.306;2023-11-21T00:15:44;27.85;;;25.98;;
81036;SDS011;70521;47.468;19.306;2023-11-21T00:18:45;30.80;;;28.80;;
81036;SDS011;70521;47.468;19.306;2023-11-21T00:21:47;35.25;;;33.10;;
81036;SDS011;70521;47.468;19.306;2023-11-21T00:24:48;29.33;;;27.15;;
81036;SDS011;70521;47.468;19.306;2023-11-21T00:27:49;28.60;;;26.80;;
81036;SDS011;70521;47.468;19.306;2023-11-21T00:30:50;40.05;;;37.75;;
81036;SDS011;70521;47.468;19.306;2023-11-21T00:33:51;30.45;;;28.13;;
81036;SDS011;70521;47.468;19.306;2023-11-21T00:36:52;24.17;;;22.27;;
81036;SDS011;70521;47.468;19.306;2023-11-21T00:39:53;33.30;;;31.25;;
81036;SDS011;70521;47.468;19.306;2023-11-21T00:42:54;24.17;;;22.42;;
81036;SDS011;70521;47.468;19.306;2023-11-21T00:45:56;22.85;;;21.08;;
81036;SDS011;70521;47.468;19.306;2023-11-21T00:48:57;26.38;;;24.58;;
81036;SDS011;70521;47.468;19.306;2023-11-21T00:51:58;24.42;;;22.38;;
81036;SDS011;70521;47.468;19.306;2023-11-21T00:55:00;26.70;;;24.85;;
81036;SDS011;70521;47.468;19.306;2023-11-21T00:58:02;29.60;;;27.73;;
81036;SDS011;70521;47.468;19.306;2023-11-21T01:01:05;30.38;;;28.42;;
81036;SDS011;70521;47.468;19.306;2023-11-21T01:04:06;28.50;;;26.55;;
81036;SDS011;70521;47.468;19.306;2023-11-21T01:07:08;36.17;;;33.70;;
81036;SDS011;70521;47.468;19.306;2023-11-21T01:10:10;39.17;;;36.83;;
81036;SDS011;70521;47.468;19.306;2023-11-21T01:13:11;34.33;;;31.95;;
81036;SDS011;70521;47.468;19.306;2023-11-21T01:16:12;41.78;;;39.45;;
81036;SDS011;70521;47.468;19.306;2023-11-21T01:19:15;30.90;;;28.33;;
81036;SDS011;70521;47.468;19.306;2023-11-21T01:22:16;32.25;;;29.70;;
81036;SDS011;70521;47.468;19.306;2023-11-21T01:25:17;31.25;;;28.85;;
81036;SDS011;70521;47.468;19.306;2023-11-21T01:28:18;40.35;;;38.03;;
81036;SDS011;70521;47.468;19.306;2023-11-21T01:31:20;26.42;;;24.27;;
81036;SDS011;70521;47.468;19.306;2023-11-21T01:34:21;26.05;;;24.05;;
81036;SDS011;70521;47.468;19.306;2023-11-21T01:37:22;30.27;;;28.27;;
81036;SDS011;70521;47.468;19.306;2023-11-21T01:40:23;29.17;;;27.00;;
81036;SDS011;70521;47.468;19.306;2023-11-21T01:43:25;26.10;;;24.33;;
81036;SDS011;70521;47.468;19.306;2023-11-21T01:46:26;29.20;;;27.30;;
81036;SDS011;70521;47.468;19.306;2023-11-21T01:49:27;36.30;;;34.33;;
81036;SDS011;70521;47.468;19.306;2023-11-21T01:52:29;24.58;;;22.95;;
81036;SDS011;70521;47.468;19.306;2023-11-21T01:55:30;23.52;;;21.90;;
81036;SDS011;70521;47.468;19.306;2023-11-21T01:58:31;21.08;;;19.45;;
81036;SDS011;70521;47.468;19.306;2023-11-21T02:01:33;24.25;;;22.55;;
81036;SDS011;70521;47.468;19.306;2023-11-21T02:04:35;28.10;;;26.40;;
81036;SDS011;70521;47.468;19.306;2023-11-21T02:07:38;20.42;;;19.00;;
81036;SDS011;70521;47.468;19.306;2023-11-21T02:10:39;22.75;;;21.33;;
81036;SDS011;70521;47.468;19.306;2023-11-21T02:13:41;24.48;;;22.55;;
81036;SDS011;70521;47.468;19.306;2023-11-21T02:16:46;22.33;;;20.65;;
81036;SDS011;70521;47.468;19.306;2023-11-21T02:19:50;35.05;;;32.75;;
81036;SDS011;70521;47.468;19.306;2023-11-21T02:22:52;26.20;;;24.20;;
81036;SDS011;70521;47.468;19.306;2023-11-21T02:25:59;31.48;;;29.30;;
81036;SDS011;70521;47.468;19.306;2023-11-21T02:29:05;32.25;;;30.25;;
81036;SDS011;70521;47.468;19.306;2023-11-21T02:32:06;28.55;;;26.55;;
81036;SDS011;70521;47.468;19.306;2023-11-21T02:35:07;27.30;;;25.23;;
81036;SDS011;70521;47.468;19.306;2023-11-21T02:38:09;25.52;;;23.60;;
81036;SDS011;70521;47.468;19.306;2023-11-21T02:41:10;30.60;;;28.25;;
81036;SDS011;70521;47.468;19.306;2023-11-21T02:44:11;29.08;;;27.15;;
81036;SDS011;70521;47.468;19.306;2023-11-21T02:47:12;30.45;;;28.33;;
81036;SDS011;70521;47.468;19.306;2023-11-21T02:50:13;32.80;;;30.63;;
81036;SDS011;70521;47.468;19.306;2023-11-21T02:53:14;38.10;;;35.70;;
81036;SDS011;70521;47.468;19.306;2023-11-21T02:56:16;27.58;;;25.65;;
81036;SDS011;70521;47.468;19.306;2023-11-21T02:59:17;29.38;;;27.27;;
81036;SDS011;70521;47.468;19.306;2023-11-21T03:02:18;45.13;;;42.50;;
81036;SDS011;70521;47.468;19.306;2023-11-21T03:05:19;31.40;;;29.25;;
81036;SDS011;70521;47.468;19.306;2023-11-21T03:08:21;41.90;;;39.60;;
81036;SDS011;70521;47.468;19.306;2023-11-21T03:11:22;30.17;;;28.20;;
81036;SDS011;70521;47.468;19.306;2023-11-21T03:14:23;34.50;;;32.40;;
81036;SDS011;70521;47.468;19.306;2023-11-21T03:17:24;28.90;;;26.77;;
81036;SDS011;70521;47.468;19.306;2023-11-21T03:20:25;33.38;;;31.45;;
81036;SDS011;70521;47.468;19.306;2023-11-21T03:23:26;39.80;;;37.38;;
81036;SDS011;70521;47.468;19.306;2023-11-21T03:26:27;32.47;;;30.13;;
81036;SDS011;70521;47.468;19.306;2023-11-21T03:29:28;30.65;;;28.60;;
81036;SDS011;70521;47.468;19.306;2023-11-21T03:32:29;27.83;;;26.02;;
81036;SDS011;70521;47.468;19.306;2023-11-21T03:35:33;25.08;;;23.38;;
81036;SDS011;70521;47.468;19.306;2023-11-21T03:38:34;26.70;;;25.08;;
81036;SDS011;70521;47.468;19.306;2023-11-21T03:41:35;28.55;;;26.80;;
81036;SDS011;70521;47.468;19.306;2023-11-21T03:44:36;24.67;;;23.13;;
81036;SDS011;70521;47.468;19.306;2023-11-21T03:47:37;22.00;;;20.58;;
81036;SDS011;70521;47.468;19.306;2023-11-21T03:50:38;25.45;;;23.88;;
81036;SDS011;70521;47.468;19.306;2023-11-21T03:53:41;29.92;;;28.02;;
81036;SDS011;70521;47.468;19.306;2023-11-21T03:56:44;24.00;;;22.42;;
81036;SDS011;70521;47.468;19.306;2023-11-21T03:59:45;23.10;;;21.67;;
81036;SDS011;70521;47.468;19.306;2023-11-21T04:02:46;32.40;;;30.35;;
81036;SDS011;70521;47.468;19.306;2023-11-21T04:05:48;28.63;;;26.70;;
81036;SDS011;70521;47.468;19.306;2023-11-21T04:08:49;26.73;;;25.13;;
81036;SDS011;70521;47.468;19.306;2023-11-21T04:11:50;26.63;;;24.73;;
81036;SDS011;70521;47.468;19.306;2023-11-21T04:14:51;25.55;;;23.90;;
81036;SDS011;70521;47.468;19.306;2023-11-21T04:17:52;28.48;;;26.95;;
81036;SDS011;70521;47.468;19.306;2023-11-21T04:20:53;27.80;;;26.10;;
81036;SDS011;70521;47.468;19.306;2023-11-21T04:23:55;34.35;;;32.55;;
81036;SDS011;70521;47.468;19.306;2023-11-21T04:26:56;44.25;;;42.25;;
81036;SDS011;70521;47.468;19.306;2023-11-21T04:29:57;26.45;;;25.08;;
81036;SDS011;70521;47.468;19.306;2023-11-21T04:32:58;19.67;;;18.25;;
81036;SDS011;70521;47.468;19.306;2023-11-21T04:35:59;27.88;;;26.02;;
81036;SDS011;70521;47.468;19.306;2023-11-21T04:39:00;22.92;;;21.63;;
81036;SDS011;70521;47.468;19.306;2023-11-21T04:42:01;46.33;;;44.40;;
81036;SDS011;70521;47.468;19.306;2023-11-21T04:45:04;23.55;;;21.88;;
81036;SDS011;70521;47.468;19.306;2023-11-21T04:48:09;30.02;;;28.13;;
81036;SDS011;70521;47.468;19.306;2023-11-21T04:51:10;37.15;;;35.45;;
81036;SDS011;70521;47.468;19.306;2023-11-21T04:54:14;22.00;;;20.70;;
81036;SDS011;70521;47.468;19.306;2023-11-21T04:57:16;20.52;;;19.33;;
81036;SDS011;70521;47.468;19.306;2023-11-21T05:00:18;24.77;;;23.15;;
81036;SDS011;70521;47.468;19.306;2023-11-21T05:03:20;27.52;;;25.73;;
81036;SDS011;70521;47.468;19.306;2023-11-21T05:06:21;29.90;;;28.17;;
81036;SDS011;70521;47.468;19.306;2023-11-21T05:09:22;26.55;;;24.98;;
81036;SDS011;70521;47.468;19.306;2023-11-21T05:12:23;22.85;;;21.17;;
81036;SDS011;70521;47.468;19.306;2023-11-21T05:15:24;22.95;;;21.52;;
81036;SDS011;70521;47.468;19.306;2023-11-21T05:18:25;19.05;;;17.75;;
81036;SDS011;70521;47.468;19.306;2023-11-21T05:21:30;21.52;;;19.85;;
81036;SDS011;70521;47.468;19.306;2023-11-21T05:24:33;21.70;;;20.30;;
81036;SDS011;70521;47.468;19.306;2023-11-21T05:27:34;21.23;;;19.60;;
81036;SDS011;70521;47.468;19.306;2023-11-21T05:30:35;30.10;;;28.45;;
81036;SDS011;70521;47.468;19.306;2023-11-21T05:33:36;22.13;;;20.67;;
81036;SDS011;70521;47.468;19.306;2023-11-21T05:36:37;22.08;;;20.48;;
81036;SDS011;70521;47.468;19.306;2023-11-21T05:39:38;26.17;;;24.55;;
81036;SDS011;70521;47.468;19.306;2023-11-21T05:42:39;21.10;;;19.73;;
81036;SDS011;70521;47.468;19.306;2023-11-21T05:45:41;23.10;;;21.67;;
81036;SDS011;70521;47.468;19.306;2023-11-21T05:48:42;22.73;;;21.13;;
81036;SDS011;70521;47.468;19.306;2023-11-21T05:51:43;22.98;;;21.15;;
81036;SDS011;70521;47.468;19.306;2023-11-21T05:54:44;19.90;;;18.17;;
81036;SDS011;70521;47.468;19.306;2023-11-21T05:57:45;26.95;;;24.63;;
81036;SDS011;70521;47.468;19.306;2023-11-21T06:00:46;28.42;;;26.42;;
81036;SDS011;70521;47.468;19.306;2023-11-21T06:03:47;33.50;;;31.17;;
81036;SDS011;70521;47.468;19.306;2023-11-21T06:06:49;36.65;;;33.78;;
81036;SDS011;70521;47.468;19.306;2023-11-21T06:09:50;31.75;;;29.33;;
81036;SDS011;70521;47.468;19.306;2023-11-21T06:12:51;37.45;;;34.78;;
81036;SDS011;70521;47.468;19.306;2023-11-21T06:15:52;36.95;;;34.30;;
81036;SDS011;70521;47.468;19.306;2023-11-21T06:18:53;40.67;;;38.05;;
81036;SDS011;70521;47.468;19.306;2023-11-21T06:21:54;43.75;;;40.97;;
81036;SDS011;70521;47.468;19.306;2023-11-21T06:24:56;33.55;;;31.42;;
81036;SDS011;70521;47.468;19.306;2023-11-21T06:27:57;28.55;;;26.52;;
81036;SDS011;70521;47.468;19.306;2023-11-21T06:30:58;33.08;;;30.95;;
81036;SDS011;70521;47.468;19.306;2023-11-21T06:33:59;31.38;;;29.42;;
81036;SDS011;70521;47.468;19.306;2023-11-21T06:37:00;32.03;;;29.85;;
81036;SDS011;70521;47.468;19.306;2023-11-21T06:40:01;34.90;;;32.50;;
81036;SDS011;70521;47.468;19.306;2023-11-21T06:43:04;40.97;;;38.42;;
81036;SDS011;70521;47.468;19.306;2023-11-21T06:46:07;34.15;;;32.10;;
81036;SDS011;70521;47.468;19.306;2023-11-21T06:49:08;31.95;;;29.42;;
81036;SDS011;70521;47.468;19.306;2023-11-21T06:52:10;33.58;;;31.17;;
81036;SDS011;70521;47.468;19.306;2023-11-21T06:55:11;35.28;;;33.08;;
81036;SDS011;70521;47.468;19.306;2023-11-21T06:58:12;27.10;;;24.88;;
81036;SDS011;70521;47.468;19.306;2023-11-21T07:01:13;35.10;;;32.72;;
81036;SDS011;70521;47.468;19.306;2023-11-21T07:04:14;28.52;;;26.45;;
81036;SDS011;70521;47.468;19.306;2023-11-21T07:07:15;26.17;;;24.38;;
81036;SDS011;70521;47.468;19.306;2023-11-21T07:10:17;28.98;;;26.85;;
81036;SDS011;70521;47.468;19.306;2023-11-21T07:13:18;37.13;;;34.30;;
81036;SDS011;70521;47.468;19.306;2023-11-21T07:16:19;30.63;;;28.05;;
81036;SDS011;70521;47.468;19.306;2023-11-21T07:19:20;34.25;;;31.95;;
81036;SDS011;70521;47.468;19.306;2023-11-21T07:22:22;30.30;;;28.05;;
81036;SDS011;70521;47.468;19.306;2023-11-21T07:25:23;31.83;;;29.65;;
81036;SDS011;70521;47.468;19.306;2023-11-21T07:28:24;27.55;;;25.27;;
81036;SDS011;70521;47.468;19.306;2023-11-21T07:31:26;27.00;;;25.38;;
81036;SDS011;70521;47.468;19.306;2023-11-21T07:34:27;33.28;;;30.95;;
81036;SDS011;70521;47.468;19.306;2023-11-21T07:37:28;24.15;;;22.27;;
81036;SDS011;70521;47.468;19.306;2023-11-21T07:40:29;29.67;;;27.40;;
81036;SDS011;70521;47.468;19.306;2023-11-21T07:43:30;25.33;;;23.63;;
81036;SDS011;70521;47.468;19.306;2023-11-21T07:46:35;26.55;;;24.63;;
81036;SDS011;70521;47.468;19.306;2023-11-21T07:49:36;25.50;;;23.48;;
81036;SDS011;70521;47.468;19.306;2023-11-21T07:52:37;32.13;;;29.83;;
81036;SDS011;70521;47.468;19.306;2023-11-21T07:55:38;28.75;;;26.55;;
81036;SDS011;70521;47.468;19.306;2023-11-21T07:58:39;26.65;;;24.27;;
81036;SDS011;70521;47.468;19.306;2023-11-21T08:01:40;30.10;;;27.73;;
81036;SDS011;70521;47.468;19.306;2023-11-21T08:04:43;21.85;;;19.85;;
81036;SDS011;70521;47.468;19.306;2023-11-21T08:07:45;24.73;;;22.52;;
81036;SDS011;70521;47.468;19.306;2023-11-21T08:10:50;26.02;;;23.70;;
81036;SDS011;70521;47.468;19.306;2023-11-21T08:13:57;26.27;;;24.27;;
81036;SDS011;70521;47.468;19.306;2023-11-21T08:16:59;25.50;;;23.48;;
81036;SDS011;70521;47.468;19.306;2023-11-21T08:20:00;22.17;;;20.42;;
81036;SDS011;70521;47.468;19.306;2023-11-21T08:23:02;23.92;;;21.73;;
81036;SDS011;70521;47.468;19.306;2023-11-21T08:26:05;28.20;;;25.98;;
81036;SDS011;70521;47.468;19.306;2023-11-21T08:29:06;28.45;;;26.10;;
81036;SDS011;70521;47.468;19.306;2023-11-21T08:32:07;24.92;;;22.92;;
81036;SDS011;70521;47.468;19.306;2023-11-21T08:35:08;21.30;;;19.65;;
81036;SDS011;70521;47.468;19.306;2023-11-21T08:38:10;21.05;;;19.40;;
81036;SDS011;70521;47.468;19.306;2023-11-21T08:41:11;19.80;;;18.17;;
81036;SDS011;70521;47.468;19.306;2023-11-21T08:44:12;22.85;;;20.95;;
81036;SDS011;70521;47.468;19.306;2023-11-21T08:47:13;23.48;;;21.55;;
81036;SDS011;70521;47.468;19.306;2023-11-21T08:50:15;20.20;;;18.27;;
81036;SDS011;70521;47.468;19.306;2023-11-21T08:53:16;20.90;;;18.98;;
81036;SDS011;70521;47.468;19.306;2023-11-21T08:56:17;20.50;;;18.88;;
81036;SDS011;70521;47.468;19.306;2023-11-21T08:59:19;20.90;;;19.13;;
81036;SDS011;70521;47.468;19.306;2023-11-21T09:02:25;17.88;;;16.27;;
81036;SDS011;70521;47.468;19.306;2023-11-21T09:05:27;24.33;;;22.45;;
81036;SDS011;70521;47.468;19.306;2023-11-21T09:08:28;21.38;;;19.65;;
81036;SDS011;70521;47.468;19.306;2023-11-21T09:11:30;25.80;;;23.90;;
81036;SDS011;70521;47.468;19.306;2023-11-21T09:14:34;22.10;;;20.30;;
81036;SDS011;70521;47.468;19.306;2023-11-21T09:17:35;20.90;;;19.15;;
81036;SDS011;70521;47.468;19.306;2023-11-21T09:20:36;20.77;;;19.02;;
81036;SDS011;70521;47.468;19.306;2023-11-21T09:23:37;20.88;;;19.17;;
81036;SDS011;70521;47.468;19.306;2023-11-21T09:26:38;20.85;;;19.00;;
81036;SDS011;70521;47.468;19.306;2023-11-21T09:29:39;22.45;;;20.70;;
81036;SDS011;70521;47.468;19.306;2023-11-21T09:32:40;20.95;;;19.25;;
81036;SDS011;70521;47.468;19.306;2023-11-21T09:35:41;24.42;;;22.48;;
81036;SDS011;70521;47.468;19.306;2023-11-21T09:38:44;28.77;;;22.45;;
81036;SDS011;70521;47.468;19.306;2023-11-21T09:48:05;27.20;;;25.00;;
81036;SDS011;70521;47.468;19.306;2023-11-21T09:51:07;26.95;;;24.55;;
81036;SDS011;70521;47.468;19.306;2023-11-21T09:54:10;22.70;;;21.00;;
81036;SDS011;70521;47.468;19.306;2023-11-21T09:57:11;20.42;;;18.52;;
81036;SDS011;70521;47.468;19.306;2023-11-21T10:00:12;22.75;;;20.88;;
81036;SDS011;70521;47.468;19.306;2023-11-21T10:03:13;20.60;;;19.13;;
81036;SDS011;70521;47.468;19.306;2023-11-21T10:06:15;19.25;;;17.45;;
81036;SDS011;70521;47.468;19.306;2023-11-21T10:09:18;18.65;;;17.15;;
81036;SDS011;70521;47.468;19.306;2023-11-21T10:12:21;17.35;;;15.95;;
81036;SDS011;70521;47.468;19.306;2023-11-21T10:15:23;19.88;;;18.08;;
81036;SDS011;70521;47.468;19.306;2023-11-21T10:18:25;21.00;;;19.33;;
81036;SDS011;70521;47.468;19.306;2023-11-21T10:21:27;21.90;;;20.40;;
81036;SDS011;70521;47.468;19.306;2023-11-21T10:24:29;19.27;;;17.73;;
81036;SDS011;70521;47.468;19.306;2023-11-21T10:27:30;23.55;;;21.83;;
81036;SDS011;70521;47.468;19.306;2023-11-21T10:30:39;18.35;;;17.13;;
81036;SDS011;70521;47.468;19.306;2023-11-21T10:33:41;18.33;;;16.92;;
81036;SDS011;70521;47.468;19.306;2023-11-21T10:36:42;18.63;;;17.10;;
81036;SDS011;70521;47.468;19.306;2023-11-21T10:39:43;16.70;;;15.45;;
81036;SDS011;70521;47.468;19.306;2023-11-21T10:42:46;15.40;;;14.05;;
81036;SDS011;70521;47.468;19.306;2023-11-21T10:45:47;17.05;;;15.57;;
81036;SDS011;70521;47.468;19.306;2023-11-21T10:48:55;19.80;;;18.30;;
81036;SDS011;70521;47.468;19.306;2023-11-21T10:51:57;20.95;;;19.27;;
81036;SDS011;70521;47.468;19.306;2023-11-21T10:54:58;20.20;;;18.90;;
81036;SDS011;70521;47.468;19.306;2023-11-21T10:58:00;20.98;;;19.42;;
81036;SDS011;70521;47.468;19.306;2023-11-21T11:01:03;21.40;;;19.20;;
81036;SDS011;70521;47.468;19.306;2023-11-21T11:04:05;20.80;;;19.17;;
81036;SDS011;70521;47.468;19.306;2023-11-21T11:07:07;22.10;;;20.17;;
81036;SDS011;70521;47.468;19.306;2023-11-21T11:10:10;22.48;;;20.40;;
81036;SDS011;70521;47.468;19.306;2023-11-21T11:13:15;21.88;;;20.02;;
81036;SDS011;70521;47.468;19.306;2023-11-21T11:16:16;22.98;;;21.13;;
81036;SDS011;70521;47.468;19.306;2023-11-21T11:19:18;22.17;;;20.40;;
81036;SDS011;70521;47.468;19.306;2023-11-21T11:26:20;27.40;;;25.08;;
81036;SDS011;70521;47.468;19.306;2023-11-21T11:35:13;31.38;;;27.45;;
81036;SDS011;70521;47.468;19.306;2023-11-21T11:38:17;29.35;;;26.58;;
81036;SDS011;70521;47.468;19.306;2023-11-21T11:41:25;32.58;;;29.95;;
81036;SDS011;70521;47.468;19.306;2023-11-21T11:47:47;27.35;;;25.00;;
81036;SDS011;70521;47.468;19.306;2023-11-21T11:51:01;30.40;;;27.85;;
81036;SDS011;70521;47.468;19.306;2023-11-21T11:54:04;25.73;;;23.52;;
81036;SDS011;70521;47.468;19.306;2023-11-21T11:57:07;28.65;;;25.92;;
81036;SDS011;70521;47.468;19.306;2023-11-21T12:00:09;31.92;;;29.30;;
81036;SDS011;70521;47.468;19.306;2023-11-21T12:03:11;25.88;;;23.60;;
81036;SDS011;70521;47.468;19.306;2023-11-21T12:06:14;29.17;;;26.58;;
81036;SDS011;70521;47.468;19.306;2023-11-21T12:09:18;24.67;;;22.55;;
81036;SDS011;70521;47.468;19.306;2023-11-21T12:12:21;28.17;;;25.85;;
81036;SDS011;70521;47.468;19.306;2023-11-21T12:15:22;25.75;;;23.45;;
81036;SDS011;70521;47.468;19.306;2023-11-21T12:18:24;22.98;;;21.17;;
81036;SDS011;70521;47.468;19.306;2023-11-21T12:21:27;21.60;;;19.95;;
81036;SDS011;70521;47.468;19.306;2023-11-21T12:24:29;20.77;;;19.17;;
81036;SDS011;70521;47.468;19.306;2023-11-21T12:27:30;21.83;;;19.85;;
81036;SDS011;70521;47.468;19.306;2023-11-21T12:30:33;22.83;;;20.83;;
81036;SDS011;70521;47.468;19.306;2023-11-21T12:33:36;24.42;;;22.10;;
81036;SDS011;70521;47.468;19.306;2023-11-21T12:36:37;25.40;;;23.13;;
81036;SDS011;70521;47.468;19.306;2023-11-21T12:39:38;28.20;;;26.10;;
81036;SDS011;70521;47.468;19.306;2023-11-21T12:42:39;28.58;;;26.25;;
81036;SDS011;70521;47.468;19.306;2023-11-21T12:45:40;26.05;;;23.73;;
81036;SDS011;70521;47.468;19.306;2023-11-21T12:48:41;30.60;;;28.23;;
81036;SDS011;70521;47.468;19.306;2023-11-21T12:51:46;32.80;;;30.42;;
81036;SDS011;70521;47.468;19.306;2023-11-21T12:54:47;26.15;;;23.65;;
81036;SDS011;70521;47.468;19.306;2023-11-21T12:57:53;25.90;;;23.70;;
81036;SDS011;70521;47.468;19.306;2023-11-21T13:00:58;26.45;;;23.98;;
81036;SDS011;70521;47.468;19.306;2023-11-21T13:04:00;32.35;;;29.58;;
81036;SDS011;70521;47.468;19.306;2023-11-21T13:07:03;23.65;;;21.35;;
81036;SDS011;70521;47.468;19.306;2023-11-21T13:10:07;23.63;;;21.42;;
81036;SDS011;70521;47.468;19.306;2023-11-21T13:13:10;23.65;;;21.35;;
81036;SDS011;70521;47.468;19.306;2023-11-21T13:16:11;22.80;;;20.45;;
81036;SDS011;70521;47.468;19.306;2023-11-21T13:19:12;25.42;;;23.35;;
81036;SDS011;70521;47.468;19.306;2023-11-21T13:22:13;24.35;;;22.23;;
81036;SDS011;70521;47.468;19.306;2023-11-21T13:25:15;23.17;;;21.25;;
81036;SDS011;70521;47.468;19.306;2023-11-21T13:28:18;25.13;;;22.92;;
81036;SDS011;70521;47.468;19.306;2023-11-21T13:31:21;26.13;;;23.95;;
81036;SDS011;70521;47.468;19.306;2023-11-21T13:34:27;22.58;;;20.67;;
81036;SDS011;70521;47.468;19.306;2023-11-21T13:37:28;31.88;;;29.63;;
81036;SDS011;70521;47.468;19.306;2023-11-21T13:40:33;30.73;;;28.52;;
81036;SDS011;70521;47.468;19.306;2023-11-21T13:43:35;23.95;;;21.85;;
81036;SDS011;70521;47.468;19.306;2023-11-21T13:46:37;23.17;;;21.38;;
81036;SDS011;70521;47.468;19.306;2023-11-21T13:49:39;22.00;;;20.05;;
81036;SDS011;70521;47.468;19.306;2023-11-21T13:52:42;22.17;;;20.35;;
81036;SDS011;70521;47.468;19.306;2023-11-21T13:55:45;29.13;;;27.02;;
81036;SDS011;70521;47.468;19.306;2023-11-21T13:58:47;24.67;;;22.55;;
81036;SDS011;70521;47.468;19.306;2023-11-21T14:01:55;26.05;;;23.98;;
81036;SDS011;70521;47.468;19.306;2023-11-21T14:04:56;21.55;;;19.75;;
81036;SDS011;70521;47.468;19.306;2023-11-21T14:08:01;24.40;;;22.40;;
81036;SDS011;70521;47.468;19.306;2023-11-21T14:11:05;23.95;;;21.83;;
81036;SDS011;70521;47.468;19.306;2023-11-21T14:14:07;21.35;;;19.33;;
81036;SDS011;70521;47.468;19.306;2023-11-21T14:17:10;21.38;;;19.42;;
81036;SDS011;70521;47.468;19.306;2023-11-21T14:20:11;24.38;;;22.70;;
81036;SDS011;70521;47.468;19.306;2023-11-21T14:23:16;28.30;;;25.88;;
81036;SDS011;70521;47.468;19.306;2023-11-21T14:26:18;26.77;;;24.30;;
81036;SDS011;70521;47.468;19.306;2023-11-21T14:29:21;23.65;;;21.67;;
81036;SDS011;70521;47.468;19.306;2023-11-21T14:32:24;23.50;;;21.23;;
81036;SDS011;70521;47.468;19.306;2023-11-21T14:35:26;25.35;;;23.27;;
81036;SDS011;70521;47.468;19.306;2023-11-21T14:38:27;21.10;;;19.00;;
81036;SDS011;70521;47.468;19.306;2023-11-21T14:41:28;24.35;;;21.90;;
81036;SDS011;70521;47.468;19.306;2023-11-21T14:44:30;26.98;;;24.73;;
81036;SDS011;70521;47.468;19.306;2023-11-21T14:47:36;23.98;;;22.00;;
81036;SDS011;70521;47.468;19.306;2023-11-21T14:50:39;25.80;;;23.60;;
81036;SDS011;70521;47.468;19.306;2023-11-21T14:53:43;24.05;;;22.20;;
81036;SDS011;70521;47.468;19.306;2023-11-21T14:56:54;27.98;;;26.02;;
81036;SDS011;70521;47.468;19.306;2023-11-21T14:59:55;28.88;;;26.33;;
81036;SDS011;70521;47.468;19.306;2023-11-21T15:02:58;24.77;;;22.75;;
81036;SDS011;70521;47.468;19.306;2023-11-21T15:06:00;24.90;;;22.60;;
81036;SDS011;70521;47.468;19.306;2023-11-21T15:09:19;27.70;;;25.23;;
81036;SDS011;70521;47.468;19.306;2023-11-21T15:12:39;26.83;;;24.70;;
81036;SDS011;70521;47.468;19.306;2023-11-21T15:15:42;31.38;;;28.27;;
81036;SDS011;70521;47.468;19.306;2023-11-21T15:18:43;28.80;;;26.27;;
81036;SDS011;70521;47.468;19.306;2023-11-21T15:21:44;27.27;;;25.00;;
81036;SDS011;70521;47.468;19.306;2023-11-21T15:24:46;28.23;;;25.55;;
81036;SDS011;70521;47.468;19.306;2023-11-21T15:27:49;33.00;;;29.73;;
81036;SDS011;70521;47.468;19.306;2023-11-21T15:30:50;41.00;;;38.22;;
81036;SDS011;70521;47.468;19.306;2023-11-21T15:33:52;34.05;;;31.85;;
81036;SDS011;70521;47.468;19.306;2023-11-21T15:37:00;35.08;;;32.30;;
81036;SDS011;70521;47.468;19.306;2023-11-21T15:40:01;39.20;;;36.72;;
81036;SDS011;70521;47.468;19.306;2023-11-21T15:43:06;36.30;;;33.80;;
81036;SDS011;70521;47.468;19.306;2023-11-21T15:46:07;28.63;;;26.25;;
81036;SDS011;70521;47.468;19.306;2023-11-21T15:49:09;26.92;;;24.52;;
81036;SDS011;70521;47.468;19.306;2023-11-21T15:52:13;27.13;;;24.63;;
81036;SDS011;70521;47.468;19.306;2023-11-21T15:55:14;29.08;;;26.60;;
81036;SDS011;70521;47.468;19.306;2023-11-21T15:58:15;26.98;;;24.38;;
81036;SDS011;70521;47.468;19.306;2023-11-21T16:01:16;25.33;;;23.17;;
81036;SDS011;70521;47.468;19.306;2023-11-21T16:04:17;31.33;;;28.83;;
81036;SDS011;70521;47.468;19.306;2023-11-21T16:07:18;27.38;;;24.63;;
81036;SDS011;70521;47.468;19.306;2023-11-21T16:10:19;31.77;;;29.45;;
81036;SDS011;70521;47.468;19.306;2023-11-21T16:13:20;32.00;;;29.63;;
81036;SDS011;70521;47.468;19.306;2023-11-21T16:16:21;25.13;;;22.70;;
81036;SDS011;70521;47.468;19.306;2023-11-21T16:19:23;20.05;;;18.25;;
81036;SDS011;70521;47.468;19.306;2023-11-21T16:22:24;21.90;;;20.20;;
81036;SDS011;70521;47.468;19.306;2023-11-21T16:25:26;22.38;;;20.65;;
81036;SDS011;70521;47.468;19.306;2023-11-21T16:28:27;24.92;;;23.02;;
81036;SDS011;70521;47.468;19.306;2023-11-21T16:31:28;25.13;;;23.40;;
81036;SDS011;70521;47.468;19.306;2023-11-21T16:34:29;21.23;;;19.23;;
81036;SDS011;70521;47.468;19.306;2023-11-21T16:37:31;29.85;;;27.95;;
81036;SDS011;70521;47.468;19.306;2023-11-21T16:40:34;23.55;;;21.65;;
81036;SDS011;70521;47.468;19.306;2023-11-21T16:43:35;21.20;;;19.65;;
81036;SDS011;70521;47.468;19.306;2023-11-21T16:46:37;27.20;;;25.63;;
81036;SDS011;70521;47.468;19.306;2023-11-21T16:49:38;25.80;;;24.10;;
81036;SDS011;70521;47.468;19.306;2023-11-21T16:52:41;37.08;;;35.05;;
81036;SDS011;70521;47.468;19.306;2023-11-21T16:55:42;22.05;;;20.55;;
81036;SDS011;70521;47.468;19.306;2023-11-21T16:58:43;23.48;;;21.92;;
81036;SDS011;70521;47.468;19.306;2023-11-21T17:01:44;24.17;;;22.65;;
81036;SDS011;70521;47.468;19.306;2023-11-21T17:04:46;21.00;;;19.40;;
81036;SDS011;70521;47.468;19.306;2023-11-21T17:07:50;21.52;;;19.65;;
81036;SDS011;70521;47.468;19.306;2023-11-21T17:10:54;19.45;;;17.98;;
81036;SDS011;70521;47.468;19.306;2023-11-21T17:13:55;16.40;;;15.00;;
81036;SDS011;70521;47.468;19.306;2023-11-21T17:16:56;19.20;;;17.83;;
81036;SDS011;70521;47.468;19.306;2023-11-21T17:19:58;14.88;;;13.70;;
81036;SDS011;70521;47.468;19.306;2023-11-21T17:23:01;18.67;;;17.27;;
81036;SDS011;70521;47.468;19.306;2023-11-21T17:26:03;18.40;;;17.10;;
81036;SDS011;70521;47.468;19.306;2023-11-21T17:29:05;21.15;;;19.75;;
81036;SDS011;70521;47.468;19.306;2023-11-21T17:32:07;17.40;;;16.05;;
81036;SDS011;70521;47.468;19.306;2023-11-21T17:35:08;19.63;;;18.27;;
81036;SDS011;70521;47.468;19.306;2023-11-21T17:38:10;16.35;;;14.98;;
81036;SDS011;70521;47.468;19.306;2023-11-21T17:41:13;17.58;;;16.30;;
81036;SDS011;70521;47.468;19.306;2023-11-21T17:44:14;19.13;;;18.02;;
81036;SDS011;70521;47.468;19.306;2023-11-21T17:47:15;19.05;;;17.70;;